»·PEaware :: BOX17 KLAS-KDEN

BOX17 :: KLAS-KDEN

FLIGHT INFORMATION

Flight Status: Arrived
Operator: Unknown
More flights by this operator :: More flights under this callsign
Pilot: William B. (10095)
Aircraft: BOEING 777-200
(B772)
More flights by this aircraft type
Origin: KLAS McCarran Intl
United States
Destination: KDEN Denver Intl
United States
More flights between these airports :: More routes between these airports
Route: +TRALR7 DVC WOLLF CREDE3
File this flight plan on PilotEdge
Remarks: P3d V3.4 PMDG 777 WITH fsdreamteam KLAS anf flight beam KDEN
Altitude:
(Current/Filed)
330ft
Speed:
(Current/Filed)
320kts
Departed: 12-Feb-17 05:20 PM
Arrived: 12-Feb-17 06:56 PM
Distance/Time
Traveled:
544nm/1:36
Distance/Time
To Go:
Arrived

Flight Plot

Page will automatically refresh every two minutes.


Map Options




Map Legend


Flown Route
Filed Route
Departure Airport
Arrival Airport
Navaid (VOR, NDB)
Fix

Horizontal Profiles

Position Reports

Time Latitude Longitude Heading Altitude Ground
Speed
12-Feb-17 16:58 36.081707 -115.129543 89 2128ft 0kts
12-Feb-17 16:59 36.081707 -115.129543 89 2128ft 0kts
12-Feb-17 17:00 36.081707 -115.129543 89 2128ft 0kts
12-Feb-17 17:01 36.081707 -115.129543 89 2128ft 0kts
12-Feb-17 17:02 36.081707 -115.129543 89 2128ft 0kts
12-Feb-17 17:03 36.081707 -115.129543 89 2128ft 0kts
12-Feb-17 17:04 36.081707 -115.129543 89 2128ft 0kts
12-Feb-17 17:05 36.081707 -115.129543 89 2128ft 0kts
12-Feb-17 17:06 36.081707 -115.129543 89 2128ft 0kts
12-Feb-17 17:07 36.081707 -115.129542 89 2128ft 0kts
12-Feb-17 17:08 36.080475 -115.130150 203 2128ft 9kts
12-Feb-17 17:09 36.079293 -115.130281 177 2128ft 0kts
12-Feb-17 17:10 36.079211 -115.130278 177 2128ft 2kts
12-Feb-17 17:11 36.077532 -115.131398 265 2128ft 1kts
12-Feb-17 17:12 36.077539 -115.135417 270 2128ft 10kts
12-Feb-17 17:13 36.077541 -115.138336 270 2128ft 10kts
12-Feb-17 17:14 36.077557 -115.143564 272 2128ft 18kts
12-Feb-17 17:15 36.077814 -115.147852 273 2128ft 19kts
12-Feb-17 17:16 36.078041 -115.154175 267 2128ft 23kts
12-Feb-17 17:17 36.078034 -115.161205 270 2128ft 23kts
12-Feb-17 17:18 36.078020 -115.163612 270 2128ft 0kts
12-Feb-17 17:19 36.078903 -115.164814 16 2128ft 0kts
12-Feb-17 17:20 36.101466 -115.151116 29 2613ft 166kts
12-Feb-17 17:21 36.124579 -115.099298 81 4842ft 204kts
12-Feb-17 17:22 36.132817 -115.016824 79 6249ft 271kts
12-Feb-17 17:23 36.145672 -114.923539 79 9315ft 279kts
12-Feb-17 17:24 36.159505 -114.822433 77 11542ft 330kts
12-Feb-17 17:25 36.187613 -114.703270 74 13725ft 380kts
12-Feb-17 17:26 36.191566 -114.569968 92 16712ft 399kts
12-Feb-17 17:27 36.192001 -114.430011 90 19591ft 414kts
12-Feb-17 17:28 36.193355 -114.285301 90 22293ft 427kts
12-Feb-17 17:29 36.205143 -114.136359 82 24800ft 442kts
12-Feb-17 17:30 36.224462 -113.983685 83 27001ft 456kts
12-Feb-17 17:31 36.243378 -113.823025 84 28641ft 480kts
12-Feb-17 17:32 36.262988 -113.657320 84 30676ft 485kts
12-Feb-17 17:33 36.282295 -113.492357 84 32741ft 482kts
12-Feb-17 17:34 36.300690 -113.327848 85 33256ft 481kts
12-Feb-17 17:35 36.334598 -113.167268 69 33257ft 488kts
12-Feb-17 17:36 36.390600 -113.013169 68 33268ft 489kts
12-Feb-17 17:37 36.447030 -112.859615 68 33267ft 490kts
12-Feb-17 17:38 36.504513 -112.706374 68 33276ft 490kts
12-Feb-17 17:39 36.560820 -112.552351 69 33253ft 490kts
12-Feb-17 17:40 36.617151 -112.397442 68 33260ft 491kts
12-Feb-17 17:41 36.673461 -112.242931 69 33274ft 490kts
12-Feb-17 17:42 36.729341 -112.088087 69 33274ft 491kts
12-Feb-17 17:43 36.785159 -111.932439 69 33275ft 499kts
12-Feb-17 17:44 36.842031 -111.773293 69 33289ft 502kts
12-Feb-17 17:45 36.898772 -111.613335 69 33299ft 502kts
12-Feb-17 17:46 36.955191 -111.453537 69 33294ft 503kts
12-Feb-17 17:47 37.011979 -111.292954 69 33296ft 504kts
12-Feb-17 17:48 37.068214 -111.132250 70 33295ft 505kts
12-Feb-17 17:49 37.124440 -110.970970 69 33287ft 507kts
12-Feb-17 17:50 37.180751 -110.809122 70 33303ft 508kts
12-Feb-17 17:51 37.236719 -110.645794 70 33334ft 509kts
12-Feb-17 17:52 37.292780 -110.482328 71 33344ft 512kts
12-Feb-17 17:53 37.348001 -110.317765 72 33367ft 512kts
12-Feb-17 17:54 37.404447 -110.152898 71 33369ft 515kts
12-Feb-17 17:55 37.460544 -109.986777 71 33379ft 515kts
12-Feb-17 17:56 37.516330 -109.819903 71 33390ft 519kts
12-Feb-17 17:57 37.572153 -109.652636 71 33394ft 518kts
12-Feb-17 17:58 37.627921 -109.484549 72 33399ft 519kts
12-Feb-17 17:59 37.683060 -109.316425 71 33395ft 520kts
12-Feb-17 18:00 37.739372 -109.148286 73 33383ft 520kts
12-Feb-17 18:01 37.793379 -108.978685 72 33367ft 521kts
12-Feb-17 18:02 37.863800 -108.817208 61 33378ft 529kts
12-Feb-17 18:03 37.941889 -108.657898 62 33369ft 530kts
12-Feb-17 18:04 38.019477 -108.498964 61 33389ft 531kts
12-Feb-17 18:05 38.096963 -108.339460 62 33392ft 532kts
12-Feb-17 18:06 38.174421 -108.179619 62 33395ft 531kts
12-Feb-17 18:07 38.250882 -108.018111 62 33398ft 532kts
12-Feb-17 18:08 38.328422 -107.856153 60 33386ft 543kts
12-Feb-17 18:09 38.406400 -107.690892 60 33401ft 544kts
12-Feb-17 18:10 38.484246 -107.525681 60 33415ft 544kts
12-Feb-17 18:11 38.562667 -107.359733 60 33401ft 545kts
12-Feb-17 18:12 38.640704 -107.193663 60 33400ft 545kts
12-Feb-17 18:13 38.718749 -107.027396 60 33409ft 546kts
12-Feb-17 18:14 38.798065 -106.861513 59 33432ft 547kts
12-Feb-17 18:15 38.876265 -106.697897 60 33410ft 533kts
12-Feb-17 18:16 38.954049 -106.534719 60 33416ft 535kts
12-Feb-17 18:17 39.029898 -106.370151 61 33424ft 536kts
12-Feb-17 18:18 39.104242 -106.203739 61 33434ft 537kts
12-Feb-17 18:19 39.178589 -106.036263 61 33413ft 538kts
12-Feb-17 18:20 39.251232 -105.867624 61 33473ft 543kts
12-Feb-17 18:21 39.325893 -105.697992 60 33028ft 539kts
12-Feb-17 18:22 39.387138 -105.528615 73 32382ft 497kts
12-Feb-17 18:23 39.452705 -105.379342 37 31572ft 467kts
12-Feb-17 18:24 39.532780 -105.256168 86 29419ft 464kts
12-Feb-17 18:25 39.499890 -105.134239 129 28143ft 423kts
12-Feb-17 18:26 39.391383 -105.075150 194 26176ft 360kts
12-Feb-17 18:27 39.306606 -105.135168 218 24390ft 349kts
12-Feb-17 18:28 39.232270 -105.206485 218 23809ft 316kts
12-Feb-17 18:29 39.162941 -105.272886 218 22594ft 306kts
12-Feb-17 18:30 39.094103 -105.338857 218 21270ft 326kts
12-Feb-17 18:31 39.061136 -105.421830 277 19174ft 341kts
12-Feb-17 18:32 39.129699 -105.492871 354 17647ft 336kts
12-Feb-17 18:33 39.220830 -105.485559 355 17228ft 325kts
12-Feb-17 18:34 39.312118 -105.485410 358 17086ft 328kts
12-Feb-17 18:35 39.401387 -105.464826 34 16606ft 340kts
12-Feb-17 18:36 39.455986 -105.367294 56 15647ft 333kts
12-Feb-17 18:37 39.507133 -105.269184 55 15055ft 328kts
12-Feb-17 18:38 39.558436 -105.171314 55 14646ft 329kts
12-Feb-17 18:39 39.609053 -105.074663 55 14007ft 322kts
12-Feb-17 18:40 39.655470 -104.985376 55 14006ft 320kts
12-Feb-17 18:41 39.724109 -104.919080 18 13613ft 313kts
12-Feb-17 18:42 39.803895 -104.880327 18 12869ft 294kts
12-Feb-17 18:43 39.878901 -104.844656 18 11892ft 283kts
12-Feb-17 18:44 39.951832 -104.809620 28 11008ft 274kts
12-Feb-17 18:45 40.024300 -104.783211 358 11003ft 281kts
12-Feb-17 18:46 40.104919 -104.784269 358 10175ft 300kts
12-Feb-17 18:47 40.182405 -104.786033 1 8999ft 258kts
12-Feb-17 18:48 40.216271 -104.722394 114 9010ft 230kts
12-Feb-17 18:49 40.164032 -104.682264 158 9014ft 222kts
12-Feb-17 18:50 40.106391 -104.651114 158 8289ft 227kts
12-Feb-17 18:51 40.050237 -104.621357 158 7115ft 201kts
12-Feb-17 18:52 40.001410 -104.608065 202 7063ft 186kts
12-Feb-17 18:53 39.958446 -104.640516 207 6407ft 166kts
12-Feb-17 18:54 39.916502 -104.659256 176 6628ft 166kts
12-Feb-17 18:55 39.872068 -104.659982 178 5654ft 153kts
12-Feb-17 18:56 39.841478 -104.660942 206 5444ft 28kts
12-Feb-17 18:57 39.840571 -104.661573 210 5444ft 0kts
12-Feb-17 18:58 39.836756 -104.662573 180 5444ft 20kts
12-Feb-17 18:59 39.833593 -104.662627 180 5444ft 2kts

Navigation Log

Ident Type
Flight plan parsing failed, navigation log unavailable